• Join FlightAware (Why Join?)
  • Login
  • US Flag 
04:57AM EST


 

Airport Tracker/Info


-or-


 

Live Flight TrackerFlight Track Log ✈ TAM3053 ✈ 13-Sep-2013 ✈ SBSP / CGH - SBUL / UDI

Flight Track Log - Related Links

Times and Time Zones

All times are in EDT time to prevent confusion due to time zone crossing. See the TAM3053 flight status page for this flight to view local times or setup timezone preferences in your user account.

Time Position Orientation Groundspeed Altitude Reporting Facility
EDT Latitude Longitude Course Direction KTS MPH feet Rate Location/Type
09:36AM -22.8379 -46.9241 343° North  Level Estimated
09:37AM -22.7662 -46.9483 343° North  Level Estimated
09:38AM -22.6945 -46.9726 343° North  Level Estimated
09:39AM -22.6227 -46.9968 343° North  Level Estimated
09:40AM -22.5510 -47.0210 343° North  Level Estimated
09:41AM -22.4793 -47.0452 343° North  Level Estimated
09:42AM -22.4075 -47.0693 343° North  Level Estimated
09:43AM -22.3358 -47.0934 343° North  Level Estimated
09:44AM -22.2640 -47.1175 343° North  Level Estimated
09:45AM -22.1922 -47.1416 343° North  Level Estimated
09:46AM -22.1205 -47.1656 343° North  Level Estimated
09:47AM -22.0487 -47.1897 343° North  Level Estimated
09:48AM -21.9770 -47.2136 343° North  Level Estimated
09:49AM -21.9052 -47.2376 343° North  Level Estimated
09:50AM -21.8334 -47.2616 343° North  Level Estimated
09:51AM -21.7616 -47.2855 343° North  Level Estimated
09:52AM -21.6899 -47.3094 343° North  Level Estimated
09:53AM -21.6181 -47.3333 343° North  Level Estimated
09:54AM -21.5463 -47.3571 343° North  Level Estimated
09:55AM -21.4745 -47.3810 343° North  Level Estimated
09:56AM -21.4027 -47.4048 343° North  Level Estimated
09:57AM -21.3309 -47.4285 343° North  Level Estimated
09:58AM -21.2591 -47.4523 343° North  Level Estimated
09:59AM -21.1873 -47.4760 343° North  Level Estimated
10:00AM -21.1155 -47.4997 343° North  Level Estimated
10:01AM -21.0437 -47.5234 343° North  Level Estimated
10:02AM -20.9719 -47.5471 343° North  Level Estimated
10:03AM -20.9001 -47.5708 343° North  Level Estimated
10:04AM -20.8282 -47.5944 343° North  Level Estimated
10:05AM -20.7564 -47.6180 343° North  Level Estimated
10:06AM -20.6846 -47.6415 343° North  Level Estimated
10:07AM -20.6128 -47.6651 343° North  Level Estimated
10:08AM -20.5409 -47.6886 343° North  Level Estimated
10:09AM -20.4691 -47.7121 343° North  Level Estimated
10:10AM -20.3972 -47.7356 343° North  Level Estimated
10:11AM -20.3254 -47.7591 343° North  Level Estimated
10:12AM -20.2536 -47.7825 343° North  Level Estimated
10:13AM -20.1817 -47.8060 343° North  Level Estimated
10:14AM -20.1099 -47.8294 343° North  Level Estimated
10:15AM -20.0380 -47.8527 343° North  Level Estimated
10:16AM -19.9661 -47.8761 343° North  Level Estimated
10:17AM -19.8943 -47.8994 343° North  Level Estimated
10:18AM -19.8224 -47.9228 343° North  Level Estimated
10:19AM -19.7505 -47.9460 343° North  Level Estimated
10:20AM -19.6787 -47.9693 343° North  Level Estimated
10:21AM -19.6068 -47.9926 343° North  Level Estimated
10:22AM -19.5349 -48.0158 343° North  Level Estimated
10:23AM -19.4631 -48.0390 343° North  Level Estimated
10:24AM -19.3912 -48.0622 343° North  Level Estimated
10:25AM -19.3193 -48.0854 343° North  Level Estimated
10:26AM -19.2474 -48.1085 343° North  Level Estimated
10:27AM -19.1755 -48.1316 343° North  Level Estimated
10:28AM -19.1036 -48.1548 343° North  Level Estimated
10:29AM -19.0317 -48.1778 343° North  Level Estimated
10:30AM -18.9598 -48.2009 343° North  Level Estimated
10:31AM -18.8879 -48.2240 343° North  Level Estimated
10:32AM -18.8828 -48.2256 343° North  Level Estimated
10:33AM -18.8828 -48.2256 223° Southwest  Level Estimated
10:34AM -18.8828 -48.2256 223° Southwest  Level Estimated
10:35AM -18.8828 -48.2256 223° Southwest  Level Estimated
10:36AM -18.8828 -48.2256 223° Southwest  Level Estimated
10:37AM -18.8828 -48.2256 223° Southwest  Level Estimated
10:38AM -18.8828 -48.2256 223° Southwest  Level Estimated
10:39AM -18.8828 -48.2256 223° Southwest  Level Estimated
10:40AM -18.8828 -48.2256 223° Southwest  Level Estimated
10:41AM -18.8828 -48.2256 223° Southwest  Level Estimated
10:42AM -18.8828 -48.2256 223° Southwest  Level Estimated
10:43AM -18.8828 -48.2256 223° Southwest  Level Estimated
10:44AM -18.8828 -48.2256 223° Southwest  Level Estimated
10:45AM -18.8828 -48.2256 223° Southwest  Level Estimated
10:46AM -18.8828 -48.2256 223° Southwest  Level Estimated
10:47AM -18.8828 -48.2256 223° Southwest  Level Estimated